sensor_id;sensor_type;location;lat;lon;timestamp;P1;durP1;ratioP1;P2;durP2;ratioP2
13331;SDS011;6735;51.456;12.626;2022-10-16T00:01:46;2.07;;;1.90;;
13331;SDS011;6735;51.456;12.626;2022-10-16T00:04:12;2.00;;;1.60;;
13331;SDS011;6735;51.456;12.626;2022-10-16T00:06:38;1.43;;;1.40;;
13331;SDS011;6735;51.456;12.626;2022-10-16T00:09:03;2.07;;;1.60;;
13331;SDS011;6735;51.456;12.626;2022-10-16T00:11:31;1.83;;;1.60;;
13331;SDS011;6735;51.456;12.626;2022-10-16T00:13:59;2.23;;;1.73;;
13331;SDS011;6735;51.456;12.626;2022-10-16T00:16:26;1.60;;;1.50;;
13331;SDS011;6735;51.456;12.626;2022-10-16T00:18:53;2.00;;;1.43;;
13331;SDS011;6735;51.456;12.626;2022-10-16T00:21:20;2.73;;;1.70;;
13331;SDS011;6735;51.456;12.626;2022-10-16T00:23:52;1.63;;;1.50;;
13331;SDS011;6735;51.456;12.626;2022-10-16T00:26:19;1.30;;;1.30;;
13331;SDS011;6735;51.456;12.626;2022-10-16T00:28:49;2.10;;;1.70;;
13331;SDS011;6735;51.456;12.626;2022-10-16T00:31:15;1.97;;;1.60;;
13331;SDS011;6735;51.456;12.626;2022-10-16T00:33:42;2.60;;;1.57;;
13331;SDS011;6735;51.456;12.626;2022-10-16T00:36:10;1.83;;;1.50;;
13331;SDS011;6735;51.456;12.626;2022-10-16T00:38:36;1.50;;;1.40;;
13331;SDS011;6735;51.456;12.626;2022-10-16T00:41:05;4.27;;;1.97;;
13331;SDS011;6735;51.456;12.626;2022-10-16T00:43:37;3.47;;;1.70;;
13331;SDS011;6735;51.456;12.626;2022-10-16T00:46:15;3.23;;;1.63;;
13331;SDS011;6735;51.456;12.626;2022-10-16T00:48:49;1.47;;;1.47;;
13331;SDS011;6735;51.456;12.626;2022-10-16T00:51:28;1.70;;;1.60;;
13331;SDS011;6735;51.456;12.626;2022-10-16T00:53:57;2.60;;;1.80;;
13331;SDS011;6735;51.456;12.626;2022-10-16T00:56:23;5.03;;;1.60;;
13331;SDS011;6735;51.456;12.626;2022-10-16T00:58:49;1.93;;;1.40;;
13331;SDS011;6735;51.456;12.626;2022-10-16T01:01:15;1.90;;;1.80;;
13331;SDS011;6735;51.456;12.626;2022-10-16T01:03:40;3.70;;;1.80;;
13331;SDS011;6735;51.456;12.626;2022-10-16T01:06:19;2.80;;;1.60;;
13331;SDS011;6735;51.456;12.626;2022-10-16T01:09:07;1.80;;;1.60;;
13331;SDS011;6735;51.456;12.626;2022-10-16T01:14:14;1.60;;;1.50;;
13331;SDS011;6735;51.456;12.626;2022-10-16T01:16:49;1.67;;;1.40;;
13331;SDS011;6735;51.456;12.626;2022-10-16T01:22:37;2.17;;;1.50;;
13331;SDS011;6735;51.456;12.626;2022-10-16T01:25:27;1.27;;;1.27;;
13331;SDS011;6735;51.456;12.626;2022-10-16T01:28:06;2.77;;;1.30;;
13331;SDS011;6735;51.456;12.626;2022-10-16T01:30:34;2.00;;;1.47;;
13331;SDS011;6735;51.456;12.626;2022-10-16T01:33:20;2.13;;;1.40;;
13331;SDS011;6735;51.456;12.626;2022-10-16T01:35:52;1.30;;;1.30;;
13331;SDS011;6735;51.456;12.626;2022-10-16T01:38:30;1.83;;;1.50;;
13331;SDS011;6735;51.456;12.626;2022-10-16T01:41:01;2.40;;;1.33;;
13331;SDS011;6735;51.456;12.626;2022-10-16T01:43:33;3.53;;;1.83;;
13331;SDS011;6735;51.456;12.626;2022-10-16T01:46:05;1.83;;;1.70;;
13331;SDS011;6735;51.456;12.626;2022-10-16T01:48:31;2.13;;;1.50;;
13331;SDS011;6735;51.456;12.626;2022-10-16T01:51:06;1.40;;;1.30;;
13331;SDS011;6735;51.456;12.626;2022-10-16T01:53:35;2.47;;;1.70;;
13331;SDS011;6735;51.456;12.626;2022-10-16T01:56:02;2.53;;;1.60;;
13331;SDS011;6735;51.456;12.626;2022-10-16T01:58:33;1.63;;;1.50;;
13331;SDS011;6735;51.456;12.626;2022-10-16T02:01:10;3.17;;;1.50;;
13331;SDS011;6735;51.456;12.626;2022-10-16T02:03:39;2.50;;;1.80;;
13331;SDS011;6735;51.456;12.626;2022-10-16T02:06:07;3.67;;;1.80;;
13331;SDS011;6735;51.456;12.626;2022-10-16T02:08:33;4.50;;;1.70;;
13331;SDS011;6735;51.456;12.626;2022-10-16T02:11:00;3.40;;;1.80;;
13331;SDS011;6735;51.456;12.626;2022-10-16T02:13:31;2.87;;;1.53;;
13331;SDS011;6735;51.456;12.626;2022-10-16T02:16:01;2.40;;;1.60;;
13331;SDS011;6735;51.456;12.626;2022-10-16T02:18:27;2.80;;;1.80;;
13331;SDS011;6735;51.456;12.626;2022-10-16T02:20:59;3.70;;;1.63;;
13331;SDS011;6735;51.456;12.626;2022-10-16T02:23:35;2.00;;;1.80;;
13331;SDS011;6735;51.456;12.626;2022-10-16T02:26:07;4.03;;;1.70;;
13331;SDS011;6735;51.456;12.626;2022-10-16T02:28:38;1.63;;;1.53;;
13331;SDS011;6735;51.456;12.626;2022-10-16T02:31:08;1.77;;;1.67;;
13331;SDS011;6735;51.456;12.626;2022-10-16T02:33:38;3.07;;;1.87;;
13331;SDS011;6735;51.456;12.626;2022-10-16T02:36:06;1.33;;;1.30;;
13331;SDS011;6735;51.456;12.626;2022-10-16T02:38:32;1.83;;;1.50;;
13331;SDS011;6735;51.456;12.626;2022-10-16T02:40:58;1.50;;;1.43;;
13331;SDS011;6735;51.456;12.626;2022-10-16T02:43:24;3.10;;;1.60;;
13331;SDS011;6735;51.456;12.626;2022-10-16T02:45:50;1.70;;;1.60;;
13331;SDS011;6735;51.456;12.626;2022-10-16T02:48:16;1.93;;;1.70;;
13331;SDS011;6735;51.456;12.626;2022-10-16T02:50:41;1.50;;;1.40;;
13331;SDS011;6735;51.456;12.626;2022-10-16T02:53:07;1.87;;;1.77;;
13331;SDS011;6735;51.456;12.626;2022-10-16T02:55:32;1.73;;;1.63;;
13331;SDS011;6735;51.456;12.626;2022-10-16T02:57:58;3.57;;;1.60;;
13331;SDS011;6735;51.456;12.626;2022-10-16T03:00:23;3.40;;;1.50;;
13331;SDS011;6735;51.456;12.626;2022-10-16T03:02:49;2.77;;;1.60;;
13331;SDS011;6735;51.456;12.626;2022-10-16T03:05:15;1.50;;;1.40;;
13331;SDS011;6735;51.456;12.626;2022-10-16T03:07:41;1.70;;;1.60;;
13331;SDS011;6735;51.456;12.626;2022-10-16T03:10:07;2.33;;;1.70;;
13331;SDS011;6735;51.456;12.626;2022-10-16T03:12:33;1.70;;;1.60;;
13331;SDS011;6735;51.456;12.626;2022-10-16T03:14:58;1.70;;;1.60;;
13331;SDS011;6735;51.456;12.626;2022-10-16T03:17:24;2.73;;;1.50;;
13331;SDS011;6735;51.456;12.626;2022-10-16T03:19:50;1.80;;;1.70;;
13331;SDS011;6735;51.456;12.626;2022-10-16T03:22:16;2.83;;;1.70;;
13331;SDS011;6735;51.456;12.626;2022-10-16T03:24:41;2.17;;;1.73;;
13331;SDS011;6735;51.456;12.626;2022-10-16T03:27:07;4.20;;;1.77;;
13331;SDS011;6735;51.456;12.626;2022-10-16T03:29:32;1.83;;;1.70;;
13331;SDS011;6735;51.456;12.626;2022-10-16T03:31:58;1.93;;;1.83;;
13331;SDS011;6735;51.456;12.626;2022-10-16T03:34:24;3.57;;;1.70;;
13331;SDS011;6735;51.456;12.626;2022-10-16T03:36:50;2.00;;;1.90;;
13331;SDS011;6735;51.456;12.626;2022-10-16T03:39:16;2.90;;;1.77;;
13331;SDS011;6735;51.456;12.626;2022-10-16T03:41:42;2.00;;;1.70;;
13331;SDS011;6735;51.456;12.626;2022-10-16T03:44:08;1.97;;;1.80;;
13331;SDS011;6735;51.456;12.626;2022-10-16T03:46:33;2.10;;;1.80;;
13331;SDS011;6735;51.456;12.626;2022-10-16T03:48:59;2.00;;;1.90;;
13331;SDS011;6735;51.456;12.626;2022-10-16T03:51:24;1.90;;;1.80;;
13331;SDS011;6735;51.456;12.626;2022-10-16T03:53:50;1.80;;;1.70;;
13331;SDS011;6735;51.456;12.626;2022-10-16T03:56:15;2.67;;;1.70;;
13331;SDS011;6735;51.456;12.626;2022-10-16T03:58:41;3.53;;;1.70;;
13331;SDS011;6735;51.456;12.626;2022-10-16T04:01:06;2.10;;;1.73;;
13331;SDS011;6735;51.456;12.626;2022-10-16T04:03:32;2.50;;;1.83;;
13331;SDS011;6735;51.456;12.626;2022-10-16T04:05:57;2.80;;;1.93;;
13331;SDS011;6735;51.456;12.626;2022-10-16T04:08:23;2.57;;;1.60;;
13331;SDS011;6735;51.456;12.626;2022-10-16T04:10:49;2.00;;;1.90;;
13331;SDS011;6735;51.456;12.626;2022-10-16T04:13:15;1.90;;;1.80;;
13331;SDS011;6735;51.456;12.626;2022-10-16T04:15:40;3.17;;;1.90;;
13331;SDS011;6735;51.456;12.626;2022-10-16T04:18:06;4.43;;;2.00;;
13331;SDS011;6735;51.456;12.626;2022-10-16T04:20:32;1.80;;;1.70;;
13331;SDS011;6735;51.456;12.626;2022-10-16T04:22:58;1.80;;;1.70;;
13331;SDS011;6735;51.456;12.626;2022-10-16T04:25:24;1.93;;;1.83;;
13331;SDS011;6735;51.456;12.626;2022-10-16T04:27:49;2.70;;;1.63;;
13331;SDS011;6735;51.456;12.626;2022-10-16T04:30:17;1.93;;;1.83;;
13331;SDS011;6735;51.456;12.626;2022-10-16T04:32:42;2.30;;;1.73;;
13331;SDS011;6735;51.456;12.626;2022-10-16T04:35:08;2.50;;;2.00;;
13331;SDS011;6735;51.456;12.626;2022-10-16T04:37:34;1.80;;;1.70;;
13331;SDS011;6735;51.456;12.626;2022-10-16T04:39:59;4.03;;;1.80;;
13331;SDS011;6735;51.456;12.626;2022-10-16T04:42:25;1.90;;;1.80;;
13331;SDS011;6735;51.456;12.626;2022-10-16T04:44:50;1.87;;;1.77;;
13331;SDS011;6735;51.456;12.626;2022-10-16T04:47:16;2.10;;;1.90;;
13331;SDS011;6735;51.456;12.626;2022-10-16T04:49:41;3.13;;;2.20;;
13331;SDS011;6735;51.456;12.626;2022-10-16T04:52:07;2.03;;;1.93;;
13331;SDS011;6735;51.456;12.626;2022-10-16T04:54:34;2.90;;;1.77;;
13331;SDS011;6735;51.456;12.626;2022-10-16T04:57:00;2.83;;;1.70;;
13331;SDS011;6735;51.456;12.626;2022-10-16T04:59:25;1.80;;;1.70;;
13331;SDS011;6735;51.456;12.626;2022-10-16T05:01:51;1.77;;;1.70;;
13331;SDS011;6735;51.456;12.626;2022-10-16T05:04:16;2.00;;;1.90;;
13331;SDS011;6735;51.456;12.626;2022-10-16T05:06:42;2.10;;;2.00;;
13331;SDS011;6735;51.456;12.626;2022-10-16T05:09:08;2.07;;;1.90;;
13331;SDS011;6735;51.456;12.626;2022-10-16T05:11:34;6.00;;;1.90;;
13331;SDS011;6735;51.456;12.626;2022-10-16T05:14:00;2.13;;;1.77;;
13331;SDS011;6735;51.456;12.626;2022-10-16T05:16:25;2.23;;;2.13;;
13331;SDS011;6735;51.456;12.626;2022-10-16T05:18:51;2.10;;;2.00;;
13331;SDS011;6735;51.456;12.626;2022-10-16T05:21:17;2.23;;;2.10;;
13331;SDS011;6735;51.456;12.626;2022-10-16T05:23:43;2.37;;;1.90;;
13331;SDS011;6735;51.456;12.626;2022-10-16T05:26:09;4.73;;;2.00;;
13331;SDS011;6735;51.456;12.626;2022-10-16T05:28:34;2.53;;;2.10;;
13331;SDS011;6735;51.456;12.626;2022-10-16T05:31:03;2.67;;;1.90;;
13331;SDS011;6735;51.456;12.626;2022-10-16T05:33:30;2.40;;;2.30;;
13331;SDS011;6735;51.456;12.626;2022-10-16T05:35:56;2.27;;;2.10;;
13331;SDS011;6735;51.456;12.626;2022-10-16T05:38:21;2.10;;;2.00;;
13331;SDS011;6735;51.456;12.626;2022-10-16T05:40:50;2.33;;;2.23;;
13331;SDS011;6735;51.456;12.626;2022-10-16T05:43:17;3.30;;;1.90;;
13331;SDS011;6735;51.456;12.626;2022-10-16T05:45:42;2.50;;;2.30;;
13331;SDS011;6735;51.456;12.626;2022-10-16T05:48:08;2.27;;;2.00;;
13331;SDS011;6735;51.456;12.626;2022-10-16T05:50:34;2.10;;;2.00;;
13331;SDS011;6735;51.456;12.626;2022-10-16T05:52:59;2.17;;;2.03;;
13331;SDS011;6735;51.456;12.626;2022-10-16T05:55:25;2.80;;;2.20;;
13331;SDS011;6735;51.456;12.626;2022-10-16T05:57:50;3.23;;;2.00;;
13331;SDS011;6735;51.456;12.626;2022-10-16T06:00:18;3.03;;;2.13;;
13331;SDS011;6735;51.456;12.626;2022-10-16T06:02:44;2.20;;;2.10;;
13331;SDS011;6735;51.456;12.626;2022-10-16T06:05:10;2.40;;;2.20;;
13331;SDS011;6735;51.456;12.626;2022-10-16T06:07:35;4.00;;;2.40;;
13331;SDS011;6735;51.456;12.626;2022-10-16T06:10:01;2.20;;;2.10;;
13331;SDS011;6735;51.456;12.626;2022-10-16T06:12:28;2.20;;;2.00;;
13331;SDS011;6735;51.456;12.626;2022-10-16T06:14:53;2.60;;;2.40;;
13331;SDS011;6735;51.456;12.626;2022-10-16T06:17:19;2.67;;;2.30;;
13331;SDS011;6735;51.456;12.626;2022-10-16T06:19:44;2.20;;;2.10;;
13331;SDS011;6735;51.456;12.626;2022-10-16T06:22:10;2.57;;;2.40;;
13331;SDS011;6735;51.456;12.626;2022-10-16T06:24:35;3.93;;;2.37;;
13331;SDS011;6735;51.456;12.626;2022-10-16T06:27:02;4.20;;;2.37;;
13331;SDS011;6735;51.456;12.626;2022-10-16T06:29:28;3.77;;;2.50;;
13331;SDS011;6735;51.456;12.626;2022-10-16T06:31:53;2.93;;;2.27;;
13331;SDS011;6735;51.456;12.626;2022-10-16T06:34:19;2.53;;;2.33;;
13331;SDS011;6735;51.456;12.626;2022-10-16T06:36:44;2.30;;;2.20;;
13331;SDS011;6735;51.456;12.626;2022-10-16T06:39:10;4.63;;;2.50;;
13331;SDS011;6735;51.456;12.626;2022-10-16T06:41:35;2.50;;;2.30;;
13331;SDS011;6735;51.456;12.626;2022-10-16T06:44:01;2.57;;;2.37;;
13331;SDS011;6735;51.456;12.626;2022-10-16T06:46:30;2.30;;;2.20;;
13331;SDS011;6735;51.456;12.626;2022-10-16T06:48:56;3.90;;;2.90;;
13331;SDS011;6735;51.456;12.626;2022-10-16T06:51:22;3.23;;;2.67;;
13331;SDS011;6735;51.456;12.626;2022-10-16T06:53:50;3.73;;;2.50;;
13331;SDS011;6735;51.456;12.626;2022-10-16T06:56:23;2.37;;;2.27;;
13331;SDS011;6735;51.456;12.626;2022-10-16T06:58:50;3.40;;;2.20;;
13331;SDS011;6735;51.456;12.626;2022-10-16T07:01:17;2.50;;;2.30;;
13331;SDS011;6735;51.456;12.626;2022-10-16T07:03:44;3.73;;;2.60;;
13331;SDS011;6735;51.456;12.626;2022-10-16T07:06:12;5.00;;;2.20;;
13331;SDS011;6735;51.456;12.626;2022-10-16T07:08:39;3.60;;;2.10;;
13331;SDS011;6735;51.456;12.626;2022-10-16T07:11:07;2.90;;;2.00;;
13331;SDS011;6735;51.456;12.626;2022-10-16T07:13:35;2.37;;;2.17;;
13331;SDS011;6735;51.456;12.626;2022-10-16T07:16:05;2.93;;;1.93;;
13331;SDS011;6735;51.456;12.626;2022-10-16T07:18:31;3.33;;;2.13;;
13331;SDS011;6735;51.456;12.626;2022-10-16T07:21:07;2.40;;;1.77;;
13331;SDS011;6735;51.456;12.626;2022-10-16T07:23:35;1.90;;;1.80;;
13331;SDS011;6735;51.456;12.626;2022-10-16T07:26:01;1.97;;;1.87;;
13331;SDS011;6735;51.456;12.626;2022-10-16T07:28:27;2.30;;;1.90;;
13331;SDS011;6735;51.456;12.626;2022-10-16T07:30:53;1.80;;;1.70;;
13331;SDS011;6735;51.456;12.626;2022-10-16T07:33:19;2.23;;;1.77;;
13331;SDS011;6735;51.456;12.626;2022-10-16T07:35:51;2.27;;;1.60;;
13331;SDS011;6735;51.456;12.626;2022-10-16T07:38:17;1.90;;;1.50;;
13331;SDS011;6735;51.456;12.626;2022-10-16T07:40:43;1.80;;;1.67;;
13331;SDS011;6735;51.456;12.626;2022-10-16T07:43:09;1.50;;;1.43;;
13331;SDS011;6735;51.456;12.626;2022-10-16T07:45:35;1.63;;;1.37;;
13331;SDS011;6735;51.456;12.626;2022-10-16T07:48:01;2.23;;;2.03;;
13331;SDS011;6735;51.456;12.626;2022-10-16T07:50:27;1.87;;;1.60;;
13331;SDS011;6735;51.456;12.626;2022-10-16T07:52:52;1.57;;;1.50;;
13331;SDS011;6735;51.456;12.626;2022-10-16T07:55:18;1.47;;;1.23;;
13331;SDS011;6735;51.456;12.626;2022-10-16T07:57:43;1.90;;;1.70;;
13331;SDS011;6735;51.456;12.626;2022-10-16T08:00:09;1.70;;;1.60;;
13331;SDS011;6735;51.456;12.626;2022-10-16T08:02:38;2.37;;;1.50;;
13331;SDS011;6735;51.456;12.626;2022-10-16T08:05:05;3.57;;;1.87;;
13331;SDS011;6735;51.456;12.626;2022-10-16T08:07:31;1.57;;;1.47;;
13331;SDS011;6735;51.456;12.626;2022-10-16T08:09:57;3.93;;;1.47;;
13331;SDS011;6735;51.456;12.626;2022-10-16T08:12:23;2.13;;;1.37;;
13331;SDS011;6735;51.456;12.626;2022-10-16T08:14:49;2.97;;;1.53;;
13331;SDS011;6735;51.456;12.626;2022-10-16T08:17:15;3.50;;;1.60;;
13331;SDS011;6735;51.456;12.626;2022-10-16T08:19:43;1.60;;;1.50;;
13331;SDS011;6735;51.456;12.626;2022-10-16T08:22:13;2.50;;;1.70;;
13331;SDS011;6735;51.456;12.626;2022-10-16T08:24:39;3.53;;;1.77;;
13331;SDS011;6735;51.456;12.626;2022-10-16T08:27:05;2.23;;;1.60;;
13331;SDS011;6735;51.456;12.626;2022-10-16T08:29:31;1.50;;;1.40;;
13331;SDS011;6735;51.456;12.626;2022-10-16T08:31:57;1.37;;;1.27;;
13331;SDS011;6735;51.456;12.626;2022-10-16T08:34:22;2.07;;;1.30;;
13331;SDS011;6735;51.456;12.626;2022-10-16T08:36:48;1.33;;;1.20;;
13331;SDS011;6735;51.456;12.626;2022-10-16T08:39:13;1.90;;;1.10;;
13331;SDS011;6735;51.456;12.626;2022-10-16T08:47:25;1.20;;;1.00;;
13331;SDS011;6735;51.456;12.626;2022-10-16T08:50:00;2.53;;;1.40;;
13331;SDS011;6735;51.456;12.626;2022-10-16T08:52:34;1.57;;;1.13;;
13331;SDS011;6735;51.456;12.626;2022-10-16T08:55:03;1.43;;;1.17;;
13331;SDS011;6735;51.456;12.626;2022-10-16T08:57:29;2.60;;;1.03;;
13331;SDS011;6735;51.456;12.626;2022-10-16T08:59:57;1.40;;;0.93;;
13331;SDS011;6735;51.456;12.626;2022-10-16T09:02:31;0.60;;;0.60;;
13331;SDS011;6735;51.456;12.626;2022-10-16T09:07:58;1.00;;;1.00;;
13331;SDS011;6735;51.456;12.626;2022-10-16T09:10:59;0.93;;;0.80;;
13331;SDS011;6735;51.456;12.626;2022-10-16T09:18:44;1.77;;;1.00;;
13331;SDS011;6735;51.456;12.626;2022-10-16T09:21:26;1.00;;;1.00;;
13331;SDS011;6735;51.456;12.626;2022-10-16T09:23:57;1.67;;;0.90;;
13331;SDS011;6735;51.456;12.626;2022-10-16T09:26:37;0.90;;;0.90;;
13331;SDS011;6735;51.456;12.626;2022-10-16T09:29:05;1.63;;;0.90;;
13331;SDS011;6735;51.456;12.626;2022-10-16T09:31:30;0.60;;;0.60;;
13331;SDS011;6735;51.456;12.626;2022-10-16T09:33:59;0.70;;;0.70;;
13331;SDS011;6735;51.456;12.626;2022-10-16T09:36:31;1.00;;;1.00;;
13331;SDS011;6735;51.456;12.626;2022-10-16T09:39:07;0.90;;;0.90;;
13331;SDS011;6735;51.456;12.626;2022-10-16T09:41:34;0.50;;;0.50;;
13331;SDS011;6735;51.456;12.626;2022-10-16T09:44:02;0.60;;;0.60;;
13331;SDS011;6735;51.456;12.626;2022-10-16T09:46:31;1.80;;;0.73;;
13331;SDS011;6735;51.456;12.626;2022-10-16T09:49:00;0.60;;;0.60;;
13331;SDS011;6735;51.456;12.626;2022-10-16T09:51:32;0.70;;;0.70;;
13331;SDS011;6735;51.456;12.626;2022-10-16T09:56:35;0.67;;;0.67;;
13331;SDS011;6735;51.456;12.626;2022-10-16T09:59:14;0.80;;;0.67;;
13331;SDS011;6735;51.456;12.626;2022-10-16T10:01:54;0.67;;;0.67;;
13331;SDS011;6735;51.456;12.626;2022-10-16T10:04:21;0.90;;;0.90;;
13331;SDS011;6735;51.456;12.626;2022-10-16T10:06:49;0.83;;;0.77;;
13331;SDS011;6735;51.456;12.626;2022-10-16T10:09:31;3.90;;;3.70;;
13331;SDS011;6735;51.456;12.626;2022-10-16T10:12:03;1.33;;;1.23;;
13331;SDS011;6735;51.456;12.626;2022-10-16T10:14:37;0.70;;;0.70;;
13331;SDS011;6735;51.456;12.626;2022-10-16T10:17:13;1.07;;;1.00;;
13331;SDS011;6735;51.456;12.626;2022-10-16T10:19:59;1.57;;;0.97;;
13331;SDS011;6735;51.456;12.626;2022-10-16T10:27:57;0.70;;;0.70;;
13331;SDS011;6735;51.456;12.626;2022-10-16T10:33:41;0.80;;;0.80;;
13331;SDS011;6735;51.456;12.626;2022-10-16T10:36:29;0.90;;;0.90;;
13331;SDS011;6735;51.456;12.626;2022-10-16T10:42:04;1.23;;;1.13;;
13331;SDS011;6735;51.456;12.626;2022-10-16T10:52:58;1.30;;;1.20;;
13331;SDS011;6735;51.456;12.626;2022-10-16T10:55:44;1.43;;;1.20;;
13331;SDS011;6735;51.456;12.626;2022-10-16T10:58:29;2.40;;;1.80;;
13331;SDS011;6735;51.456;12.626;2022-10-16T11:01:15;1.80;;;1.70;;
13331;SDS011;6735;51.456;12.626;2022-10-16T11:06:22;2.00;;;1.60;;
13331;SDS011;6735;51.456;12.626;2022-10-16T11:08:59;1.87;;;1.57;;
13331;SDS011;6735;51.456;12.626;2022-10-16T11:11:30;2.20;;;1.53;;
13331;SDS011;6735;51.456;12.626;2022-10-16T11:14:22;1.57;;;1.40;;
13331;SDS011;6735;51.456;12.626;2022-10-16T11:17:03;2.97;;;1.30;;
13331;SDS011;6735;51.456;12.626;2022-10-16T11:25:19;1.73;;;1.00;;
13331;SDS011;6735;51.456;12.626;2022-10-16T11:27:55;1.20;;;0.77;;
13331;SDS011;6735;51.456;12.626;2022-10-16T11:30:34;0.90;;;0.90;;
13331;SDS011;6735;51.456;12.626;2022-10-16T11:40:52;3.07;;;1.37;;
13331;SDS011;6735;51.456;12.626;2022-10-16T11:43:32;1.00;;;1.00;;
13331;SDS011;6735;51.456;12.626;2022-10-16T11:46:17;2.67;;;1.00;;
13331;SDS011;6735;51.456;12.626;2022-10-16T11:48:51;1.60;;;1.50;;
13331;SDS011;6735;51.456;12.626;2022-10-16T11:54:08;2.73;;;1.70;;
13331;SDS011;6735;51.456;12.626;2022-10-16T11:56:40;1.00;;;1.00;;
13331;SDS011;6735;51.456;12.626;2022-10-16T11:59:18;1.07;;;1.03;;
13331;SDS011;6735;51.456;12.626;2022-10-16T12:07:11;0.90;;;0.90;;
13331;SDS011;6735;51.456;12.626;2022-10-16T12:09:41;3.43;;;1.07;;
13331;SDS011;6735;51.456;12.626;2022-10-16T12:15:24;2.83;;;0.93;;
13331;SDS011;6735;51.456;12.626;2022-10-16T12:17:47;5.40;;;1.37;;
13331;SDS011;6735;51.456;12.626;2022-10-16T12:25:29;1.37;;;1.27;;
13331;SDS011;6735;51.456;12.626;2022-10-16T12:28:04;1.10;;;1.00;;
13331;SDS011;6735;51.456;12.626;2022-10-16T12:30:32;1.73;;;1.00;;
13331;SDS011;6735;51.456;12.626;2022-10-16T12:33:01;2.63;;;1.30;;
13331;SDS011;6735;51.456;12.626;2022-10-16T12:35:32;1.83;;;1.73;;
13331;SDS011;6735;51.456;12.626;2022-10-16T12:38:07;1.50;;;1.40;;
13331;SDS011;6735;51.456;12.626;2022-10-16T12:40:39;1.20;;;1.20;;
13331;SDS011;6735;51.456;12.626;2022-10-16T12:43:26;1.53;;;1.37;;
13331;SDS011;6735;51.456;12.626;2022-10-16T12:46:03;0.90;;;0.90;;
13331;SDS011;6735;51.456;12.626;2022-10-16T12:48:35;0.97;;;0.97;;
13331;SDS011;6735;51.456;12.626;2022-10-16T12:51:19;1.50;;;0.90;;
13331;SDS011;6735;51.456;12.626;2022-10-16T13:02:31;1.20;;;1.10;;
13331;SDS011;6735;51.456;12.626;2022-10-16T13:07:50;2.37;;;2.17;;
13331;SDS011;6735;51.456;12.626;2022-10-16T13:21:31;1.03;;;1.03;;
13331;SDS011;6735;51.456;12.626;2022-10-16T13:24:29;1.13;;;1.10;;
13331;SDS011;6735;51.456;12.626;2022-10-16T13:30:18;1.83;;;1.07;;
13331;SDS011;6735;51.456;12.626;2022-10-16T13:32:47;1.30;;;1.20;;
13331;SDS011;6735;51.456;12.626;2022-10-16T13:35:19;0.90;;;0.90;;
13331;SDS011;6735;51.456;12.626;2022-10-16T13:37:50;0.90;;;0.90;;
13331;SDS011;6735;51.456;12.626;2022-10-16T13:40:27;1.97;;;1.20;;
13331;SDS011;6735;51.456;12.626;2022-10-16T13:42:52;1.00;;;1.00;;
13331;SDS011;6735;51.456;12.626;2022-10-16T13:45:19;1.37;;;1.37;;
13331;SDS011;6735;51.456;12.626;2022-10-16T13:47:46;1.10;;;1.00;;
13331;SDS011;6735;51.456;12.626;2022-10-16T13:50:13;1.33;;;1.23;;
13331;SDS011;6735;51.456;12.626;2022-10-16T13:52:42;2.57;;;2.00;;
13331;SDS011;6735;51.456;12.626;2022-10-16T13:55:15;1.47;;;1.23;;
13331;SDS011;6735;51.456;12.626;2022-10-16T13:57:42;0.80;;;0.80;;
13331;SDS011;6735;51.456;12.626;2022-10-16T14:00:18;2.13;;;1.53;;
13331;SDS011;6735;51.456;12.626;2022-10-16T14:02:44;1.30;;;1.13;;
13331;SDS011;6735;51.456;12.626;2022-10-16T14:05:10;1.00;;;1.00;;
13331;SDS011;6735;51.456;12.626;2022-10-16T14:07:36;0.80;;;0.80;;
13331;SDS011;6735;51.456;12.626;2022-10-16T14:10:04;0.97;;;0.97;;
13331;SDS011;6735;51.456;12.626;2022-10-16T14:12:44;2.30;;;1.10;;
13331;SDS011;6735;51.456;12.626;2022-10-16T14:15:17;2.17;;;1.07;;
13331;SDS011;6735;51.456;12.626;2022-10-16T14:17:44;1.00;;;1.00;;
13331;SDS011;6735;51.456;12.626;2022-10-16T14:20:14;1.57;;;1.10;;
13331;SDS011;6735;51.456;12.626;2022-10-16T14:22:43;1.00;;;1.00;;
13331;SDS011;6735;51.456;12.626;2022-10-16T14:27:43;3.97;;;2.10;;
13331;SDS011;6735;51.456;12.626;2022-10-16T14:30:16;2.10;;;1.30;;
13331;SDS011;6735;51.456;12.626;2022-10-16T14:32:56;2.80;;;1.17;;
13331;SDS011;6735;51.456;12.626;2022-10-16T14:35:36;0.93;;;0.90;;
13331;SDS011;6735;51.456;12.626;2022-10-16T14:38:04;2.63;;;1.10;;
13331;SDS011;6735;51.456;12.626;2022-10-16T14:40:31;1.97;;;1.40;;
13331;SDS011;6735;51.456;12.626;2022-10-16T14:42:59;1.83;;;1.47;;
13331;SDS011;6735;51.456;12.626;2022-10-16T14:45:27;3.40;;;2.50;;
13331;SDS011;6735;51.456;12.626;2022-10-16T14:48:05;2.90;;;2.30;;
13331;SDS011;6735;51.456;12.626;2022-10-16T14:50:42;1.43;;;1.30;;
13331;SDS011;6735;51.456;12.626;2022-10-16T14:53:13;1.40;;;1.30;;
13331;SDS011;6735;51.456;12.626;2022-10-16T14:55:39;1.43;;;1.33;;
13331;SDS011;6735;51.456;12.626;2022-10-16T14:58:22;1.70;;;1.50;;
13331;SDS011;6735;51.456;12.626;2022-10-16T15:00:48;2.17;;;1.80;;
13331;SDS011;6735;51.456;12.626;2022-10-16T15:03:14;2.53;;;2.03;;
13331;SDS011;6735;51.456;12.626;2022-10-16T15:05:40;3.10;;;2.60;;
13331;SDS011;6735;51.456;12.626;2022-10-16T15:08:06;4.60;;;2.10;;
13331;SDS011;6735;51.456;12.626;2022-10-16T15:10:33;3.17;;;2.30;;
13331;SDS011;6735;51.456;12.626;2022-10-16T15:13:03;2.73;;;1.97;;
13331;SDS011;6735;51.456;12.626;2022-10-16T15:15:33;1.70;;;1.60;;
13331;SDS011;6735;51.456;12.626;2022-10-16T15:17:59;1.70;;;1.60;;
13331;SDS011;6735;51.456;12.626;2022-10-16T15:20:33;1.47;;;1.47;;
13331;SDS011;6735;51.456;12.626;2022-10-16T15:23:10;1.53;;;1.43;;
13331;SDS011;6735;51.456;12.626;2022-10-16T15:25:43;1.70;;;1.60;;
13331;SDS011;6735;51.456;12.626;2022-10-16T15:28:11;3.00;;;1.90;;
13331;SDS011;6735;51.456;12.626;2022-10-16T15:30:37;1.77;;;1.60;;
13331;SDS011;6735;51.456;12.626;2022-10-16T15:33:04;3.70;;;1.80;;
13331;SDS011;6735;51.456;12.626;2022-10-16T15:35:35;3.30;;;1.90;;
13331;SDS011;6735;51.456;12.626;2022-10-16T15:38:01;2.13;;;1.90;;
13331;SDS011;6735;51.456;12.626;2022-10-16T15:40:26;2.50;;;1.90;;
13331;SDS011;6735;51.456;12.626;2022-10-16T15:42:52;2.17;;;2.03;;
13331;SDS011;6735;51.456;12.626;2022-10-16T15:45:17;2.00;;;1.90;;
13331;SDS011;6735;51.456;12.626;2022-10-16T15:47:44;1.83;;;1.73;;
13331;SDS011;6735;51.456;12.626;2022-10-16T15:50:11;1.97;;;1.80;;
13331;SDS011;6735;51.456;12.626;2022-10-16T15:52:38;1.90;;;1.80;;
13331;SDS011;6735;51.456;12.626;2022-10-16T15:55:08;2.87;;;1.80;;
13331;SDS011;6735;51.456;12.626;2022-10-16T15:57:35;2.37;;;2.17;;
13331;SDS011;6735;51.456;12.626;2022-10-16T16:00:04;2.07;;;1.97;;
13331;SDS011;6735;51.456;12.626;2022-10-16T16:02:31;5.30;;;4.90;;
13331;SDS011;6735;51.456;12.626;2022-10-16T16:04:56;7.63;;;6.83;;
13331;SDS011;6735;51.456;12.626;2022-10-16T16:07:22;11.10;;;10.17;;
13331;SDS011;6735;51.456;12.626;2022-10-16T16:09:47;12.97;;;11.77;;
13331;SDS011;6735;51.456;12.626;2022-10-16T16:12:13;11.87;;;10.77;;
13331;SDS011;6735;51.456;12.626;2022-10-16T16:14:39;12.97;;;11.77;;
13331;SDS011;6735;51.456;12.626;2022-10-16T16:17:04;12.43;;;11.33;;
13331;SDS011;6735;51.456;12.626;2022-10-16T16:19:30;12.67;;;11.47;;
13331;SDS011;6735;51.456;12.626;2022-10-16T16:21:56;13.40;;;11.73;;
13331;SDS011;6735;51.456;12.626;2022-10-16T16:24:22;10.57;;;9.47;;
13331;SDS011;6735;51.456;12.626;2022-10-16T16:26:47;11.07;;;10.03;;
13331;SDS011;6735;51.456;12.626;2022-10-16T16:29:13;10.17;;;9.03;;
13331;SDS011;6735;51.456;12.626;2022-10-16T16:31:40;6.50;;;5.90;;
13331;SDS011;6735;51.456;12.626;2022-10-16T16:34:06;4.90;;;4.50;;
13331;SDS011;6735;51.456;12.626;2022-10-16T16:36:32;5.50;;;3.93;;
13331;SDS011;6735;51.456;12.626;2022-10-16T16:38:58;3.53;;;3.33;;
13331;SDS011;6735;51.456;12.626;2022-10-16T16:41:25;3.63;;;3.43;;
13331;SDS011;6735;51.456;12.626;2022-10-16T16:43:53;3.80;;;3.30;;